Главная страница
METAR-TAF:

METAR-TAF

Аэропорты :

Антананариву, Мадагаскар

широта: 18-48S, долгота: 047-29E, высота над уровнем моря: 1279 м

Текущие метеонаблюдения

Эта сводка был подготовлена 28 минут назад, в 13:00 UTC
Ветер 11 Узел от юго-юго-восточный, изменяющийся между восточно-юго-восточный и южный
Температура 16°C
Влажность 55%
Давление 1025 hPa
Видимость 10 км и более
Отдельные облака на высоте 1700 фута

METAR: FMMI 191300Z 15011KT 110V180 9999 SCT017 16/07 Q1025 NOSIG

Время: 16:28 (13:28 UTC)

Прогноз

Эта сводка был подготовлена 2 часа и 28 минут назад, в 11:00 UTC
Прогноз действительный с 19-го 12 UTC до 20-го 18 UTC
Ветер 10 Узел от юго-юго-восточный
Видимость 10 км и более
Отдельные облака на высоте 1700 фута
Рассеянная облачность на высоте 2000 фута
Вероятность 40% :
временами
С 19-го 15 UTC до 20-го 06 UTC
Видимость: 4800 м
Морось, дождь

TAF: FMMI 191100Z 1912/2018 16010KT 9999 SCT017 BKN020 PROB40 TEMPO 1915/2006 4800 DZRA

Метеонаблюдения и прогнозы для более 4000 аэропортов (сводки METAR и TAF).

Имеющиеся станции представлены на карте желтыми и красными точками.

Чтобы увидеть название станции, наведите на нее мышь.

Затем щелкните, чтобы увидеть метеонаблюдения и метеопрогнозы.

Управление картой: чтобы увеличить масштаб, щелкните зеленые кнопки с черным крестиком; чтобы уменьшить масштаб, щелкните зеленую кнопку с тире; для просмотра соседних карт щелкайте зеленые стрелки.


METAR-TAF: